createdAt,value
2018-02-17T00:01:39.037Z,50.10
2018-02-17T00:04:05.312Z,39.00
2018-02-17T00:06:32.367Z,52.87
2018-02-17T00:08:58.680Z,45.67
2018-02-17T00:11:25.024Z,48.63
2018-02-17T00:13:51.374Z,48.00
2018-02-17T00:16:18.416Z,43.87
2018-02-17T00:18:44.743Z,47.60
2018-02-17T00:21:11.063Z,44.03
2018-02-17T00:23:37.472Z,47.03
2018-02-17T00:26:03.767Z,43.53
2018-02-17T00:28:30.108Z,40.77
2018-02-17T00:30:56.445Z,50.53
2018-02-17T00:33:22.876Z,46.53
2018-02-17T00:35:49.260Z,43.27
2018-02-17T00:38:19.195Z,46.00
2018-02-17T00:40:45.766Z,45.60
2018-02-17T00:43:12.095Z,45.00
2018-02-17T00:45:38.439Z,42.30
2018-02-17T00:48:04.947Z,43.03
2018-02-17T00:50:31.980Z,45.30
2018-02-17T00:52:59.009Z,44.90
2018-02-17T00:55:27.205Z,43.03
2018-02-17T00:57:54.005Z,41.40
2018-02-17T01:00:26.661Z,41.23
2018-02-17T01:03:06.297Z,41.20
2018-02-17T01:05:35.275Z,41.97
2018-02-17T01:08:02.750Z,43.47
2018-02-17T01:10:36.272Z,36.63
2018-02-17T01:13:04.835Z,44.47
2018-02-17T01:15:43.741Z,44.00
2018-02-17T01:18:12.731Z,41.87
2018-02-17T01:20:40.913Z,54.57
2018-02-17T01:23:07.243Z,40.80
2018-02-17T01:25:34.255Z,39.13
2018-02-17T01:28:00.555Z,40.87
2018-02-17T01:30:39.415Z,39.30
2018-02-17T01:33:05.761Z,46.93
2018-02-17T01:35:32.060Z,40.20
2018-02-17T01:37:58.340Z,50.57
2018-02-17T01:40:25.388Z,39.80
2018-02-17T01:42:52.438Z,38.03
2018-02-17T01:45:18.794Z,39.67
2018-02-17T01:47:45.108Z,41.47
2018-02-17T01:50:23.636Z,43.90
2018-02-17T01:52:50.004Z,51.33
2018-02-17T01:55:16.345Z,49.57
2018-02-17T01:57:42.904Z,35.37
2018-02-17T02:00:09.200Z,40.13
2018-02-17T02:02:35.503Z,40.53
2018-02-17T02:05:01.767Z,32.20
2018-02-17T02:07:28.051Z,51.70
2018-02-17T02:09:54.350Z,43.80
2018-02-17T02:12:20.615Z,44.57
2018-02-17T02:14:46.931Z,43.77
2018-02-17T02:17:13.219Z,50.93
2018-02-17T02:19:39.552Z,38.80
2018-02-17T02:22:05.845Z,43.03
2018-02-17T02:24:32.133Z,38.73
2018-02-17T02:26:59.169Z,43.60
2018-02-17T02:29:26.195Z,35.23
2018-02-17T02:31:53.219Z,43.20
2018-02-17T02:34:19.523Z,47.53
2018-02-17T02:36:45.800Z,37.83
2018-02-17T02:39:12.102Z,40.73
2018-02-17T02:41:38.623Z,42.63
2018-02-17T02:44:04.960Z,41.07
2018-02-17T02:46:31.260Z,43.17
2018-02-17T02:48:57.539Z,48.33
2018-02-17T02:51:24.580Z,48.30
2018-02-17T02:53:52.281Z,54.50
2018-02-17T02:56:18.563Z,58.77
2018-02-17T02:58:44.857Z,54.00
2018-02-17T03:01:11.940Z,67.97
2018-02-17T03:03:38.271Z,68.73
2018-02-17T03:06:04.552Z,60.67
2018-02-17T03:08:30.841Z,65.77
2018-02-17T03:10:57.909Z,76.93
2018-02-17T03:13:24.302Z,78.27
2018-02-17T03:15:51.747Z,75.97
2018-02-17T03:18:18.032Z,75.90
2018-02-17T03:20:44.351Z,64.97
2018-02-17T03:23:11.407Z,81.53
2018-02-17T03:25:37.698Z,65.20
2018-02-17T03:28:04.046Z,73.67
2018-02-17T03:30:30.368Z,81.20
2018-02-17T03:32:56.647Z,83.87
2018-02-17T03:35:23.699Z,67.27
2018-02-17T03:37:49.983Z,80.87
2018-02-17T03:40:16.283Z,77.20
2018-02-17T03:42:42.557Z,82.10
2018-02-17T03:45:08.852Z,80.77
2018-02-17T03:47:35.898Z,88.70
2018-02-17T03:50:02.180Z,79.00
2018-02-17T03:52:28.491Z,73.57
2018-02-17T03:54:54.778Z,72.37
2018-02-17T03:57:21.055Z,79.00
2018-02-17T03:59:47.369Z,74.10
2018-02-17T04:02:13.637Z,73.20
2018-02-17T04:04:39.935Z,63.60
2018-02-17T04:07:06.228Z,77.13
2018-02-17T04:09:32.518Z,73.67
2018-02-17T04:11:59.563Z,73.47
2018-02-17T04:14:25.850Z,76.27
2018-02-17T04:16:52.149Z,64.07
2018-02-17T04:19:18.434Z,58.37
2018-02-17T04:21:44.736Z,64.23
2018-02-17T04:24:11.039Z,48.70
2018-02-17T04:26:37.348Z,51.60
2018-02-17T04:29:03.655Z,46.30
2018-02-17T04:31:30.671Z,53.90
2018-02-17T04:33:56.955Z,57.67
2018-02-17T04:36:23.254Z,50.33
2018-02-17T04:38:50.674Z,47.83
2018-02-17T04:41:18.890Z,56.73
2018-02-17T04:43:46.125Z,50.83
2018-02-17T04:46:14.366Z,50.93
2018-02-17T04:51:52.326Z,57.47
2018-02-17T04:54:24.735Z,50.67
2018-02-17T04:57:08.859Z,47.10
2018-02-17T04:59:41.266Z,44.03
2018-02-17T05:05:15.549Z,50.17
2018-02-17T05:07:43.454Z,40.40
2018-02-17T05:10:10.537Z,48.80
2018-02-17T05:12:43.742Z,49.70
2018-02-17T05:15:24.934Z,53.53
2018-02-17T05:17:52.041Z,46.77
2018-02-17T05:20:39.210Z,58.80
2018-02-17T05:23:07.150Z,49.17
2018-02-17T05:28:43.719Z,54.77
2018-02-17T05:31:11.614Z,51.13
2018-02-17T05:36:42.497Z,46.40
2018-02-17T05:39:08.829Z,53.43
2018-02-17T05:44:50.753Z,44.90
2018-02-17T05:47:32.001Z,43.77
2018-02-17T05:50:00.275Z,48.33
2018-02-17T05:52:26.546Z,38.27
2018-02-17T05:54:53.595Z,48.33
2018-02-17T05:57:19.880Z,42.63
2018-02-17T05:59:46.934Z,45.23
2018-02-17T06:02:13.262Z,49.33
2018-02-17T06:04:39.585Z,45.50
2018-02-17T06:07:05.889Z,53.07
2018-02-17T06:09:32.301Z,44.07
2018-02-17T06:11:58.687Z,43.37
2018-02-17T06:14:25.005Z,43.43
2018-02-17T06:16:51.352Z,40.60
2018-02-17T06:19:17.666Z,42.23
2018-02-17T06:21:43.942Z,42.83
2018-02-17T06:24:10.249Z,55.90
2018-02-17T06:26:36.522Z,41.17
2018-02-17T06:29:02.817Z,42.27
2018-02-17T06:31:29.851Z,35.30
2018-02-17T06:33:56.132Z,38.83
2018-02-17T06:36:22.454Z,42.57
2018-02-17T06:38:48.731Z,47.47
2018-02-17T06:41:15.026Z,44.17
2018-02-17T06:43:41.562Z,47.83
2018-02-17T06:46:08.238Z,48.00
2018-02-17T06:48:34.651Z,46.70
2018-02-17T06:51:00.932Z,43.50
2018-02-17T06:53:30.915Z,42.47
2018-02-17T06:55:57.608Z,47.50
2018-02-17T06:58:24.674Z,44.30
2018-02-17T07:00:50.996Z,47.47
2018-02-17T07:03:17.279Z,39.67
2018-02-17T07:05:43.619Z,41.33
2018-02-17T07:08:09.917Z,45.13
2018-02-17T07:10:36.196Z,47.70
2018-02-17T07:13:03.275Z,50.93
2018-02-17T07:15:29.576Z,43.13
2018-02-17T07:17:55.873Z,47.97
2018-02-17T07:20:22.273Z,44.57
2018-02-17T07:22:49.287Z,40.93
2018-02-17T07:25:15.574Z,41.10
2018-02-17T07:27:41.907Z,41.40
2018-02-17T07:30:08.218Z,47.73
2018-02-17T07:32:34.515Z,39.80
2018-02-17T07:35:00.841Z,37.80
2018-02-17T07:37:27.159Z,41.50
2018-02-17T07:39:53.428Z,42.60
2018-02-17T07:42:19.761Z,36.93
2018-02-17T07:44:46.086Z,37.17
2018-02-17T07:47:12.387Z,36.40
2018-02-17T07:49:39.450Z,36.23
2018-02-17T07:52:05.745Z,45.07
2018-02-17T07:54:32.178Z,37.33
2018-02-17T07:56:58.458Z,44.90
2018-02-17T07:59:25.666Z,41.27
2018-02-17T08:01:52.745Z,35.33
2018-02-17T08:04:19.062Z,41.37
2018-02-17T08:06:46.142Z,37.83
2018-02-17T08:09:12.991Z,38.63
2018-02-17T08:11:39.471Z,42.27
2018-02-17T08:14:17.051Z,36.83
2018-02-17T08:16:56.482Z,31.63
2018-02-17T08:19:30.332Z,36.97
2018-02-17T08:22:05.380Z,38.53
2018-02-17T08:24:36.219Z,38.33
2018-02-17T08:27:15.041Z,40.73
2018-02-17T08:29:47.137Z,34.93
2018-02-17T08:32:17.216Z,32.47
2018-02-17T08:35:02.901Z,39.60
2018-02-17T08:37:31.333Z,32.60
2018-02-17T08:39:58.944Z,38.40
2018-02-17T08:42:27.269Z,38.40
2018-02-17T08:45:01.113Z,36.97
2018-02-17T08:47:29.474Z,36.20
2018-02-17T08:49:55.818Z,36.87
2018-02-17T08:52:22.891Z,33.23
2018-02-17T08:54:49.245Z,38.83
2018-02-17T08:57:15.522Z,35.80
2018-02-17T08:59:41.857Z,30.40
2018-02-17T09:02:08.126Z,37.97
2018-02-17T09:04:35.657Z,39.40
2018-02-17T09:07:03.181Z,36.00
2018-02-17T09:09:29.567Z,31.33
2018-02-17T09:11:55.891Z,39.07
2018-02-17T09:14:22.202Z,30.13
2018-02-17T09:16:59.553Z,40.33
2018-02-17T09:19:26.421Z,36.13
2018-02-17T09:21:52.678Z,35.27
2018-02-17T09:24:19.882Z,38.00
2018-02-17T09:26:46.274Z,34.00
2018-02-17T09:29:12.557Z,31.50
2018-02-17T09:31:38.857Z,37.20
2018-02-17T09:34:05.125Z,30.83
2018-02-17T09:36:31.426Z,33.70
2018-02-17T09:38:57.736Z,28.23
2018-02-17T09:41:24.026Z,36.53
2018-02-17T09:43:50.299Z,36.60
2018-02-17T09:46:16.562Z,36.40
2018-02-17T09:48:42.858Z,34.67
2018-02-17T09:51:09.894Z,34.93
2018-02-17T09:53:36.959Z,35.10
2018-02-17T09:56:03.304Z,30.10
2018-02-17T09:58:29.596Z,39.47
2018-02-17T10:00:55.907Z,32.87
2018-02-17T10:03:22.186Z,27.80
2018-02-17T10:05:49.204Z,27.60
2018-02-17T10:08:15.510Z,31.27
2018-02-17T10:10:41.962Z,28.67
2018-02-17T10:13:08.487Z,33.10
2018-02-17T10:15:34.825Z,30.30
2018-02-17T10:18:01.145Z,36.67
2018-02-17T10:20:27.443Z,33.50
2018-02-17T10:22:53.796Z,35.27
2018-02-17T10:25:20.093Z,27.40
2018-02-17T10:27:46.394Z,40.07
2018-02-17T10:30:12.815Z,35.97
2018-02-17T10:32:39.099Z,30.93
2018-02-17T10:35:06.148Z,37.97
2018-02-17T10:37:33.185Z,32.57
2018-02-17T10:39:59.468Z,32.57
2018-02-17T10:42:25.807Z,38.00
2018-02-17T10:44:52.845Z,28.00
2018-02-17T10:47:19.154Z,36.17
2018-02-17T10:49:46.199Z,39.53
2018-02-17T10:52:12.523Z,39.90
2018-02-17T10:54:39.165Z,37.80
2018-02-17T10:57:05.469Z,33.03
2018-02-17T10:59:31.745Z,33.07
2018-02-17T11:01:58.858Z,30.70
2018-02-17T11:04:25.154Z,35.70
2018-02-17T11:06:51.849Z,31.63
2018-02-17T11:09:18.227Z,34.00
2018-02-17T11:11:44.614Z,33.23
2018-02-17T11:14:11.405Z,38.47
2018-02-17T11:16:37.665Z,34.13
2018-02-17T11:19:04.398Z,32.43
2018-02-17T11:21:30.954Z,35.90
2018-02-17T11:23:57.985Z,30.77
2018-02-17T11:26:25.087Z,30.90
2018-02-17T11:28:51.367Z,36.70
2018-02-17T11:31:17.747Z,32.43
2018-02-17T11:33:44.777Z,29.03
2018-02-17T11:36:11.790Z,34.57
2018-02-17T11:38:38.085Z,29.03
2018-02-17T11:41:04.615Z,32.27
2018-02-17T11:43:30.922Z,29.70
2018-02-17T11:45:57.242Z,25.93
2018-02-17T11:48:23.556Z,34.77
2018-02-17T11:50:49.924Z,39.23
2018-02-17T11:53:16.250Z,33.97
2018-02-17T11:55:43.320Z,39.77
2018-02-17T11:58:09.761Z,31.27
2018-02-17T12:00:36.023Z,33.77
2018-02-17T12:03:02.318Z,26.47
2018-02-17T12:05:29.459Z,31.17
2018-02-17T12:07:56.587Z,30.33
2018-02-17T12:10:22.871Z,31.13
2018-02-17T12:12:49.139Z,28.33
2018-02-17T12:15:15.467Z,34.13
2018-02-17T12:17:41.790Z,27.73
2018-02-17T12:20:08.126Z,25.40
2018-02-17T12:22:34.428Z,28.03
2018-02-17T12:25:00.711Z,31.17
2018-02-17T12:27:27.006Z,28.97
2018-02-17T12:29:54.006Z,30.53
2018-02-17T12:32:20.316Z,31.73
2018-02-17T12:34:46.599Z,28.07
2018-02-17T12:37:12.924Z,119.97
2018-02-17T12:39:39.209Z,36.53
2018-02-17T12:42:06.223Z,25.80
2018-02-17T12:44:32.506Z,37.83
2018-02-17T12:46:58.786Z,39.23
2018-02-17T12:49:25.069Z,25.87
2018-02-17T12:51:51.376Z,25.77
2018-02-17T12:54:17.675Z,33.90
2018-02-17T12:56:43.947Z,29.13
2018-02-17T12:59:10.250Z,31.43
2018-02-17T13:01:36.557Z,34.10
2018-02-17T13:04:03.566Z,34.47
2018-02-17T13:06:29.863Z,31.50
2018-02-17T13:08:56.170Z,30.43
2018-02-17T13:11:22.464Z,28.90
2018-02-17T13:13:48.763Z,24.67
2018-02-17T13:16:15.059Z,27.90
2018-02-17T13:18:42.105Z,30.50
2018-02-17T13:21:12.050Z,30.87
2018-02-17T13:23:39.637Z,30.00
2018-02-17T13:26:07.886Z,28.80
2018-02-17T13:28:34.164Z,27.30
2018-02-17T13:31:01.844Z,28.67
2018-02-17T13:33:28.882Z,22.07
2018-02-17T13:35:55.146Z,26.53
2018-02-17T13:38:21.490Z,24.83
2018-02-17T13:40:51.259Z,22.27
2018-02-17T13:43:17.991Z,24.17
2018-02-17T13:45:52.465Z,23.07
2018-02-17T13:48:19.047Z,23.43
2018-02-17T13:50:45.325Z,31.87
2018-02-17T13:53:11.589Z,25.77
2018-02-17T13:55:38.659Z,26.10
2018-02-17T13:58:05.101Z,22.83
2018-02-17T14:00:33.605Z,23.17
2018-02-17T14:03:00.335Z,25.90
2018-02-17T14:05:28.111Z,19.57
2018-02-17T14:07:54.482Z,20.37
2018-02-17T14:10:20.771Z,28.07
2018-02-17T14:12:47.069Z,23.43
2018-02-17T14:15:13.335Z,22.83
2018-02-17T14:17:39.634Z,32.37
2018-02-17T14:20:05.951Z,33.20
2018-02-17T14:22:32.222Z,25.93
2018-02-17T14:24:59.261Z,29.33
2018-02-17T14:27:25.555Z,27.67
2018-02-17T14:29:51.928Z,29.30
2018-02-17T14:32:18.681Z,26.47
2018-02-17T14:34:45.960Z,21.13
2018-02-17T14:37:12.917Z,23.60
2018-02-17T14:39:39.984Z,22.70
2018-02-17T14:42:07.044Z,26.90
2018-02-17T14:44:33.857Z,19.17
2018-02-17T14:47:01.315Z,25.30
2018-02-17T14:49:27.993Z,44.37
2018-02-17T14:51:54.828Z,39.20
2018-02-17T14:54:21.620Z,22.53
2018-02-17T14:56:48.051Z,29.00
2018-02-17T14:59:14.345Z,26.37
2018-02-17T15:01:40.639Z,24.00
2018-02-17T15:04:07.690Z,22.50
2018-02-17T15:06:34.058Z,24.00
2018-02-17T15:09:00.370Z,22.20
2018-02-17T15:11:26.687Z,24.07
2018-02-17T15:13:52.978Z,25.77
2018-02-17T15:16:19.267Z,22.33
2018-02-17T15:18:45.563Z,24.20
2018-02-17T15:21:12.618Z,22.70
2018-02-17T15:23:39.198Z,16.90
2018-02-17T15:26:06.307Z,27.43
2018-02-17T15:28:32.598Z,25.57
2018-02-17T15:30:58.898Z,21.43
2018-02-17T15:33:25.209Z,25.20
2018-02-17T15:35:51.677Z,22.60
2018-02-17T15:38:18.010Z,22.33
2018-02-17T15:40:44.414Z,21.33
2018-02-17T15:43:12.943Z,24.43
2018-02-17T15:45:41.000Z,21.37
2018-02-17T15:48:07.314Z,23.43
2018-02-17T15:50:33.874Z,24.87
2018-02-17T15:53:05.432Z,24.67
2018-02-17T15:55:34.418Z,21.60
2018-02-17T15:58:01.291Z,17.63
2018-02-17T16:00:28.618Z,26.23
2018-02-17T16:02:55.451Z,24.40
2018-02-17T16:05:21.811Z,25.27
2018-02-17T16:07:48.122Z,29.63
2018-02-17T16:10:16.362Z,32.33
2018-02-17T16:12:42.756Z,33.73
2018-02-17T16:15:09.756Z,27.67
2018-02-17T16:17:36.362Z,28.30
2018-02-17T16:20:03.251Z,26.60
2018-02-17T16:22:29.828Z,31.47
2018-02-17T16:24:56.414Z,26.40
2018-02-17T16:27:22.787Z,26.07
2018-02-17T16:29:51.880Z,23.47
2018-02-17T16:32:18.978Z,23.87
2018-02-17T16:34:48.249Z,22.00
2018-02-17T16:37:15.331Z,26.10
2018-02-17T16:39:42.426Z,28.47
2018-02-17T16:42:08.711Z,24.03
2018-02-17T16:44:35.084Z,25.90
2018-02-17T16:47:02.027Z,23.53
2018-02-17T16:49:28.769Z,28.33
2018-02-17T16:51:56.255Z,29.07
2018-02-17T16:54:22.550Z,33.93
2018-02-17T16:56:48.906Z,28.00
2018-02-17T16:59:15.401Z,26.50
2018-02-17T17:01:42.254Z,23.33
2018-02-17T17:04:08.562Z,25.97
2018-02-17T17:06:34.857Z,25.97
2018-02-17T17:09:12.346Z,32.60
2018-02-17T17:11:38.660Z,34.37
2018-02-17T17:14:04.971Z,33.17
2018-02-17T17:16:31.431Z,31.43
2018-02-17T17:18:57.784Z,40.73
2018-02-17T17:21:24.110Z,40.37
2018-02-17T17:23:50.438Z,32.53
2018-02-17T17:26:16.725Z,24.23
2018-02-17T17:28:43.032Z,32.97
2018-02-17T17:31:10.062Z,28.67
2018-02-17T17:33:36.438Z,23.93
2018-02-17T17:36:03.171Z,23.57
2018-02-17T17:38:30.111Z,31.80
2018-02-17T17:40:58.056Z,30.00
2018-02-17T17:43:25.025Z,28.43
2018-02-17T17:45:52.009Z,31.57
2018-02-17T17:48:18.350Z,27.93
2018-02-17T17:50:44.792Z,32.03
2018-02-17T17:53:11.710Z,32.40
2018-02-17T17:55:37.975Z,30.53
2018-02-17T17:58:04.300Z,31.07
2018-02-17T18:00:30.606Z,23.87
2018-02-17T18:02:56.892Z,29.10
2018-02-17T18:05:23.207Z,27.43
2018-02-17T18:07:49.468Z,32.57
2018-02-17T18:10:15.770Z,28.33
2018-02-17T18:12:42.074Z,24.97
2018-02-17T18:15:08.374Z,27.65
2018-02-17T18:17:34.669Z,28.60
2018-02-17T18:20:00.969Z,33.97
2018-02-17T18:22:28.421Z,31.30
2018-02-17T18:24:54.726Z,32.93
2018-02-17T18:27:21.863Z,36.17
2018-02-17T18:29:48.241Z,41.80
2018-02-17T18:32:15.609Z,38.13
2018-02-17T18:34:41.908Z,53.43
2018-02-17T18:37:08.313Z,38.27
2018-02-17T18:39:34.648Z,36.83
2018-02-17T18:42:00.943Z,41.70
2018-02-17T18:44:27.240Z,30.87
2018-02-17T18:46:53.541Z,30.00
2018-02-17T18:49:19.861Z,31.40
2018-02-17T18:51:47.140Z,36.47
2018-02-17T18:54:14.233Z,27.43
2018-02-17T18:56:40.531Z,34.47
2018-02-17T18:59:06.916Z,28.97
2018-02-17T19:01:33.355Z,31.53
2018-02-17T19:04:01.577Z,34.70
2018-02-17T19:06:27.905Z,32.00
2018-02-17T19:08:54.228Z,45.33
2018-02-17T19:11:20.549Z,32.20
2018-02-17T19:13:46.968Z,43.67
2018-02-17T19:16:14.095Z,39.23
2018-02-17T19:18:40.443Z,33.93
2018-02-17T19:21:06.794Z,35.83
2018-02-17T19:23:33.067Z,33.00
2018-02-17T19:26:00.127Z,42.77
2018-02-17T19:28:26.434Z,39.73
2018-02-17T19:30:52.721Z,35.30
2018-02-17T19:33:20.106Z,38.07
2018-02-17T19:35:47.314Z,41.87
2018-02-17T19:38:13.605Z,44.60
2018-02-17T19:40:39.974Z,53.23
2018-02-17T19:43:06.349Z,44.23
2018-02-17T19:45:32.637Z,40.30
2018-02-17T19:47:59.598Z,42.67
2018-02-17T19:50:25.926Z,37.37
2018-02-17T19:52:52.226Z,40.33
2018-02-17T19:55:19.463Z,32.27
2018-02-17T19:57:46.288Z,37.60
2018-02-17T20:00:13.300Z,44.50
2018-02-17T20:02:39.670Z,41.63
2018-02-17T20:05:05.974Z,47.03
2018-02-17T20:07:32.256Z,43.63
2018-02-17T20:09:58.587Z,35.93
2018-02-17T20:12:25.606Z,42.60
2018-02-17T20:14:52.001Z,43.30
2018-02-17T20:17:18.312Z,47.33
2018-02-17T20:19:44.586Z,36.30
2018-02-17T20:22:10.895Z,41.80
2018-02-17T20:24:37.206Z,56.13
2018-02-17T20:27:03.575Z,45.63
2018-02-17T20:29:29.933Z,46.17
2018-02-17T20:31:56.991Z,42.63
2018-02-17T20:34:23.357Z,43.53
2018-02-17T20:36:49.715Z,41.77
2018-02-17T20:39:16.008Z,44.80
2018-02-17T20:41:42.281Z,47.43
2018-02-17T20:44:08.600Z,46.23
2018-02-17T20:46:34.933Z,45.60
2018-02-17T20:49:01.227Z,42.07
2018-02-17T20:51:27.520Z,42.77
2018-02-17T20:53:53.839Z,38.37
2018-02-17T20:56:20.182Z,43.17
2018-02-17T20:58:46.621Z,36.30
2018-02-17T21:01:13.108Z,44.20
2018-02-17T21:03:39.433Z,37.03
2018-02-17T21:06:05.722Z,33.93
2018-02-17T21:08:32.004Z,42.97
2018-02-17T21:10:59.037Z,43.33
2018-02-17T21:13:25.333Z,41.43
2018-02-17T21:15:51.630Z,42.40
2018-02-17T21:18:17.918Z,40.13
2018-02-17T21:20:44.181Z,40.97
2018-02-17T21:23:10.514Z,42.97
2018-02-17T21:25:37.531Z,46.00
2018-02-17T21:28:03.859Z,39.40
2018-02-17T21:30:30.903Z,40.33
2018-02-17T21:32:58.228Z,39.27
2018-02-17T21:35:24.622Z,36.63
2018-02-17T21:37:50.886Z,41.03
2018-02-17T21:40:17.279Z,35.10
2018-02-17T21:42:43.598Z,39.57
2018-02-17T21:45:10.004Z,37.43
2018-02-17T21:47:36.309Z,43.57
2018-02-17T21:50:02.650Z,38.67
2018-02-17T21:52:29.740Z,45.33
2018-02-17T21:54:57.534Z,35.13
2018-02-17T21:57:24.659Z,39.80
2018-02-17T21:59:51.267Z,40.60
2018-02-17T22:02:18.357Z,46.97
2018-02-17T22:04:44.684Z,42.13
2018-02-17T22:07:10.987Z,33.20
2018-02-17T22:09:37.279Z,36.70
2018-02-17T22:12:03.643Z,43.63
2018-02-17T22:14:30.503Z,42.83
2018-02-17T22:16:57.262Z,37.10
2018-02-17T22:19:23.546Z,35.27
2018-02-17T22:21:50.056Z,42.23
2018-02-17T22:24:16.849Z,34.97
2018-02-17T22:26:43.933Z,40.00
2018-02-17T22:29:10.653Z,37.40
2018-02-17T22:31:37.008Z,36.20
2018-02-17T22:34:03.383Z,41.63
2018-02-17T22:36:29.689Z,38.63
2018-02-17T22:38:56.070Z,36.13
2018-02-17T22:41:22.396Z,42.10
2018-02-17T22:43:48.686Z,46.93
2018-02-17T22:46:15.058Z,35.93
2018-02-17T22:48:41.330Z,41.90
2018-02-17T22:51:07.615Z,41.77
2018-02-17T22:53:34.714Z,43.50
2018-02-17T22:56:00.987Z,41.50
2018-02-17T22:58:27.258Z,37.87
2018-02-17T23:00:53.593Z,42.70
2018-02-17T23:03:19.934Z,41.77
2018-02-17T23:05:46.284Z,43.03
2018-02-17T23:08:12.561Z,44.20
2018-02-17T23:10:38.891Z,43.87
2018-02-17T23:13:05.233Z,45.40
2018-02-17T23:15:31.515Z,47.27
2018-02-17T23:17:57.828Z,49.13
2018-02-17T23:20:24.110Z,40.33
2018-02-17T23:22:50.457Z,49.33
2018-02-17T23:25:16.756Z,47.03
2018-02-17T23:27:43.895Z,49.63
2018-02-17T23:30:10.905Z,45.30
2018-02-17T23:32:37.203Z,50.63
2018-02-17T23:35:03.505Z,50.73
2018-02-17T23:37:29.797Z,45.37
2018-02-17T23:39:56.132Z,49.73
2018-02-17T23:42:22.393Z,55.53
2018-02-17T23:44:49.419Z,47.13
2018-02-17T23:47:15.710Z,47.77
2018-02-17T23:49:42.004Z,46.33
2018-02-17T23:52:08.507Z,55.50
2018-02-17T23:54:34.772Z,45.80
2018-02-17T23:57:01.067Z,41.03
2018-02-17T23:59:27.440Z,40.23
